sensor_id;sensor_type;location;lat;lon;timestamp;P1;durP1;ratioP1;P2;durP2;ratioP2
53203;SDS011;39086;54.424;18.456;2023-04-07T00:00:04;12.15;;;7.13;;
53203;SDS011;39086;54.424;18.456;2023-04-07T00:01:06;15.18;;;7.20;;
53203;SDS011;39086;54.424;18.456;2023-04-07T00:02:10;17.52;;;7.45;;
53203;SDS011;39086;54.424;18.456;2023-04-07T00:03:12;15.00;;;6.95;;
53203;SDS011;39086;54.424;18.456;2023-04-07T00:04:16;18.58;;;6.68;;
53203;SDS011;39086;54.424;18.456;2023-04-07T00:05:18;13.80;;;6.97;;
53203;SDS011;39086;54.424;18.456;2023-04-07T00:06:22;20.40;;;8.27;;
53203;SDS011;39086;54.424;18.456;2023-04-07T00:07:24;16.65;;;7.05;;
53203;SDS011;39086;54.424;18.456;2023-04-07T00:08:27;20.55;;;7.90;;
53203;SDS011;39086;54.424;18.456;2023-04-07T00:09:30;22.20;;;7.82;;
53203;SDS011;39086;54.424;18.456;2023-04-07T00:10:35;22.85;;;7.00;;
53203;SDS011;39086;54.424;18.456;2023-04-07T00:11:37;15.10;;;8.15;;
53203;SDS011;39086;54.424;18.456;2023-04-07T00:12:40;30.00;;;8.13;;
53203;SDS011;39086;54.424;18.456;2023-04-07T00:13:43;20.88;;;8.75;;
53203;SDS011;39086;54.424;18.456;2023-04-07T00:14:46;23.45;;;8.02;;
53203;SDS011;39086;54.424;18.456;2023-04-07T00:15:49;15.40;;;8.00;;
53203;SDS011;39086;54.424;18.456;2023-04-07T00:16:52;24.17;;;8.20;;
53203;SDS011;39086;54.424;18.456;2023-04-07T00:17:54;22.08;;;7.97;;
53203;SDS011;39086;54.424;18.456;2023-04-07T00:18:58;18.63;;;7.72;;
53203;SDS011;39086;54.424;18.456;2023-04-07T00:20:00;37.58;;;7.88;;
53203;SDS011;39086;54.424;18.456;2023-04-07T00:21:03;13.57;;;7.10;;
53203;SDS011;39086;54.424;18.456;2023-04-07T00:22:06;18.80;;;8.20;;
53203;SDS011;39086;54.424;18.456;2023-04-07T00:23:09;19.50;;;8.18;;
53203;SDS011;39086;54.424;18.456;2023-04-07T00:24:11;16.75;;;7.78;;
53203;SDS011;39086;54.424;18.456;2023-04-07T00:25:27;18.25;;;6.78;;
53203;SDS011;39086;54.424;18.456;2023-04-07T00:26:31;19.30;;;8.27;;
53203;SDS011;39086;54.424;18.456;2023-04-07T00:27:34;23.10;;;8.07;;
53203;SDS011;39086;54.424;18.456;2023-04-07T00:28:36;30.77;;;8.05;;
53203;SDS011;39086;54.424;18.456;2023-04-07T00:29:40;21.77;;;7.32;;
53203;SDS011;39086;54.424;18.456;2023-04-07T00:30:43;25.20;;;8.10;;
53203;SDS011;39086;54.424;18.456;2023-04-07T00:31:47;29.25;;;8.48;;
53203;SDS011;39086;54.424;18.456;2023-04-07T00:32:49;20.98;;;8.85;;
53203;SDS011;39086;54.424;18.456;2023-04-07T00:33:52;29.00;;;8.40;;
53203;SDS011;39086;54.424;18.456;2023-04-07T00:34:56;29.55;;;8.38;;
53203;SDS011;39086;54.424;18.456;2023-04-07T00:36:02;20.90;;;7.85;;
53203;SDS011;39086;54.424;18.456;2023-04-07T00:37:05;32.58;;;8.02;;
53203;SDS011;39086;54.424;18.456;2023-04-07T00:38:08;41.28;;;7.90;;
53203;SDS011;39086;54.424;18.456;2023-04-07T00:39:10;29.05;;;7.88;;
53203;SDS011;39086;54.424;18.456;2023-04-07T00:40:14;18.25;;;7.13;;
53203;SDS011;39086;54.424;18.456;2023-04-07T00:41:16;32.35;;;7.82;;
53203;SDS011;39086;54.424;18.456;2023-04-07T00:42:21;25.92;;;7.25;;
53203;SDS011;39086;54.424;18.456;2023-04-07T00:43:23;24.70;;;7.45;;
53203;SDS011;39086;54.424;18.456;2023-04-07T00:44:27;21.02;;;7.93;;
53203;SDS011;39086;54.424;18.456;2023-04-07T00:45:29;21.48;;;7.70;;
53203;SDS011;39086;54.424;18.456;2023-04-07T00:46:32;19.67;;;7.47;;
53203;SDS011;39086;54.424;18.456;2023-04-07T00:47:35;29.77;;;7.15;;
53203;SDS011;39086;54.424;18.456;2023-04-07T00:48:38;18.80;;;7.10;;
53203;SDS011;39086;54.424;18.456;2023-04-07T00:49:40;21.05;;;7.25;;
53203;SDS011;39086;54.424;18.456;2023-04-07T00:50:44;22.40;;;7.15;;
53203;SDS011;39086;54.424;18.456;2023-04-07T00:51:46;21.25;;;6.05;;
53203;SDS011;39086;54.424;18.456;2023-04-07T00:52:50;28.90;;;7.00;;
53203;SDS011;39086;54.424;18.456;2023-04-07T00:53:53;19.05;;;6.70;;
53203;SDS011;39086;54.424;18.456;2023-04-07T00:54:57;28.30;;;7.30;;
53203;SDS011;39086;54.424;18.456;2023-04-07T00:56:00;18.83;;;7.50;;
53203;SDS011;39086;54.424;18.456;2023-04-07T00:57:03;13.85;;;6.60;;
53203;SDS011;39086;54.424;18.456;2023-04-07T00:58:07;21.67;;;7.32;;
53203;SDS011;39086;54.424;18.456;2023-04-07T00:59:11;24.80;;;6.70;;
53203;SDS011;39086;54.424;18.456;2023-04-07T01:00:13;21.77;;;7.28;;
53203;SDS011;39086;54.424;18.456;2023-04-07T01:01:18;24.83;;;7.00;;
53203;SDS011;39086;54.424;18.456;2023-04-07T01:02:25;18.98;;;7.40;;
53203;SDS011;39086;54.424;18.456;2023-04-07T01:03:32;16.27;;;7.22;;
53203;SDS011;39086;54.424;18.456;2023-04-07T01:04:38;18.55;;;7.13;;
53203;SDS011;39086;54.424;18.456;2023-04-07T01:05:47;17.58;;;6.95;;
53203;SDS011;39086;54.424;18.456;2023-04-07T01:06:51;20.30;;;7.15;;
53203;SDS011;39086;54.424;18.456;2023-04-07T01:07:57;22.00;;;6.43;;
53203;SDS011;39086;54.424;18.456;2023-04-07T01:09:04;23.77;;;7.85;;
53203;SDS011;39086;54.424;18.456;2023-04-07T01:10:10;15.23;;;6.88;;
53203;SDS011;39086;54.424;18.456;2023-04-07T01:11:15;27.70;;;6.65;;
53203;SDS011;39086;54.424;18.456;2023-04-07T01:12:22;25.23;;;6.93;;
53203;SDS011;39086;54.424;18.456;2023-04-07T01:13:29;23.88;;;6.82;;
53203;SDS011;39086;54.424;18.456;2023-04-07T01:14:34;19.27;;;6.88;;
53203;SDS011;39086;54.424;18.456;2023-04-07T01:15:41;23.25;;;6.95;;
53203;SDS011;39086;54.424;18.456;2023-04-07T01:16:48;20.02;;;6.53;;
53203;SDS011;39086;54.424;18.456;2023-04-07T01:17:54;20.40;;;6.55;;
53203;SDS011;39086;54.424;18.456;2023-04-07T01:19:03;18.20;;;6.05;;
53203;SDS011;39086;54.424;18.456;2023-04-07T01:20:09;13.23;;;6.20;;
53203;SDS011;39086;54.424;18.456;2023-04-07T01:21:14;17.75;;;6.60;;
53203;SDS011;39086;54.424;18.456;2023-04-07T01:22:20;19.80;;;6.60;;
53203;SDS011;39086;54.424;18.456;2023-04-07T01:23:27;20.42;;;6.22;;
53203;SDS011;39086;54.424;18.456;2023-04-07T01:24:45;19.73;;;6.72;;
53203;SDS011;39086;54.424;18.456;2023-04-07T01:25:59;19.10;;;5.88;;
53203;SDS011;39086;54.424;18.456;2023-04-07T01:27:10;14.95;;;6.28;;
53203;SDS011;39086;54.424;18.456;2023-04-07T01:28:22;17.27;;;6.40;;
53203;SDS011;39086;54.424;18.456;2023-04-07T01:29:34;18.30;;;5.85;;
53203;SDS011;39086;54.424;18.456;2023-04-07T01:30:40;20.95;;;6.43;;
53203;SDS011;39086;54.424;18.456;2023-04-07T01:31:44;14.90;;;6.45;;
53203;SDS011;39086;54.424;18.456;2023-04-07T01:32:49;21.60;;;6.85;;
53203;SDS011;39086;54.424;18.456;2023-04-07T01:33:54;17.30;;;6.97;;
53203;SDS011;39086;54.424;18.456;2023-04-07T01:34:58;17.25;;;7.00;;
53203;SDS011;39086;54.424;18.456;2023-04-07T01:36:01;20.48;;;7.32;;
53203;SDS011;39086;54.424;18.456;2023-04-07T01:37:05;24.48;;;7.97;;
53203;SDS011;39086;54.424;18.456;2023-04-07T01:38:07;19.83;;;8.82;;
53203;SDS011;39086;54.424;18.456;2023-04-07T01:39:11;20.88;;;8.20;;
53203;SDS011;39086;54.424;18.456;2023-04-07T01:40:14;20.02;;;6.88;;
53203;SDS011;39086;54.424;18.456;2023-04-07T01:41:18;25.73;;;7.38;;
53203;SDS011;39086;54.424;18.456;2023-04-07T01:42:21;26.77;;;7.75;;
53203;SDS011;39086;54.424;18.456;2023-04-07T01:43:24;21.02;;;7.45;;
53203;SDS011;39086;54.424;18.456;2023-04-07T01:44:28;20.70;;;7.88;;
53203;SDS011;39086;54.424;18.456;2023-04-07T01:45:34;17.95;;;7.00;;
53203;SDS011;39086;54.424;18.456;2023-04-07T01:46:37;22.83;;;7.30;;
53203;SDS011;39086;54.424;18.456;2023-04-07T01:47:40;21.00;;;6.90;;
53203;SDS011;39086;54.424;18.456;2023-04-07T01:48:43;17.83;;;7.07;;
53203;SDS011;39086;54.424;18.456;2023-04-07T01:49:47;14.75;;;6.53;;
53203;SDS011;39086;54.424;18.456;2023-04-07T01:50:49;23.85;;;6.82;;
53203;SDS011;39086;54.424;18.456;2023-04-07T01:51:53;20.90;;;7.20;;
53203;SDS011;39086;54.424;18.456;2023-04-07T01:52:55;15.20;;;6.90;;
53203;SDS011;39086;54.424;18.456;2023-04-07T01:53:59;13.82;;;6.32;;
53203;SDS011;39086;54.424;18.456;2023-04-07T01:55:03;19.73;;;8.10;;
53203;SDS011;39086;54.424;18.456;2023-04-07T01:56:06;28.85;;;8.60;;
53203;SDS011;39086;54.424;18.456;2023-04-07T01:57:09;25.25;;;7.75;;
53203;SDS011;39086;54.424;18.456;2023-04-07T01:58:12;20.60;;;9.10;;
53203;SDS011;39086;54.424;18.456;2023-04-07T01:59:14;26.52;;;8.88;;
53203;SDS011;39086;54.424;18.456;2023-04-07T02:00:17;21.10;;;7.57;;
53203;SDS011;39086;54.424;18.456;2023-04-07T02:01:21;23.83;;;8.07;;
53203;SDS011;39086;54.424;18.456;2023-04-07T02:02:25;20.48;;;7.05;;
53203;SDS011;39086;54.424;18.456;2023-04-07T02:03:29;21.30;;;7.97;;
53203;SDS011;39086;54.424;18.456;2023-04-07T02:04:34;27.17;;;7.97;;
53203;SDS011;39086;54.424;18.456;2023-04-07T02:05:39;19.65;;;7.05;;
53203;SDS011;39086;54.424;18.456;2023-04-07T02:06:43;27.75;;;7.95;;
53203;SDS011;39086;54.424;18.456;2023-04-07T02:07:51;21.55;;;7.88;;
53203;SDS011;39086;54.424;18.456;2023-04-07T02:08:56;20.10;;;8.10;;
53203;SDS011;39086;54.424;18.456;2023-04-07T02:10:00;21.33;;;7.35;;
53203;SDS011;39086;54.424;18.456;2023-04-07T02:11:04;24.98;;;7.95;;
53203;SDS011;39086;54.424;18.456;2023-04-07T02:12:08;18.85;;;7.32;;
53203;SDS011;39086;54.424;18.456;2023-04-07T02:13:14;23.45;;;7.85;;
53203;SDS011;39086;54.424;18.456;2023-04-07T02:14:17;22.70;;;8.00;;
53203;SDS011;39086;54.424;18.456;2023-04-07T02:15:22;13.80;;;6.93;;
53203;SDS011;39086;54.424;18.456;2023-04-07T02:16:27;20.25;;;7.65;;
53203;SDS011;39086;54.424;18.456;2023-04-07T02:17:32;18.90;;;6.78;;
53203;SDS011;39086;54.424;18.456;2023-04-07T02:18:35;15.70;;;7.00;;
53203;SDS011;39086;54.424;18.456;2023-04-07T02:19:42;17.15;;;7.43;;
53203;SDS011;39086;54.424;18.456;2023-04-07T02:20:46;19.48;;;7.13;;
53203;SDS011;39086;54.424;18.456;2023-04-07T02:21:49;19.75;;;7.45;;
53203;SDS011;39086;54.424;18.456;2023-04-07T02:22:53;17.48;;;6.68;;
53203;SDS011;39086;54.424;18.456;2023-04-07T02:23:56;19.60;;;7.35;;
53203;SDS011;39086;54.424;18.456;2023-04-07T02:25:02;19.60;;;6.40;;
53203;SDS011;39086;54.424;18.456;2023-04-07T02:26:18;16.90;;;7.05;;
53203;SDS011;39086;54.424;18.456;2023-04-07T02:27:21;17.27;;;7.28;;
53203;SDS011;39086;54.424;18.456;2023-04-07T02:28:24;20.83;;;7.47;;
53203;SDS011;39086;54.424;18.456;2023-04-07T02:29:27;27.35;;;7.50;;
53203;SDS011;39086;54.424;18.456;2023-04-07T02:30:30;18.27;;;7.05;;
53203;SDS011;39086;54.424;18.456;2023-04-07T02:31:35;22.50;;;7.68;;
53203;SDS011;39086;54.424;18.456;2023-04-07T02:32:37;20.83;;;7.57;;
53203;SDS011;39086;54.424;18.456;2023-04-07T02:33:41;19.00;;;7.38;;
53203;SDS011;39086;54.424;18.456;2023-04-07T02:34:44;19.90;;;7.85;;
53203;SDS011;39086;54.424;18.456;2023-04-07T02:35:48;23.73;;;7.32;;
53203;SDS011;39086;54.424;18.456;2023-04-07T02:36:50;25.42;;;8.18;;
53203;SDS011;39086;54.424;18.456;2023-04-07T02:37:54;19.50;;;7.68;;
53203;SDS011;39086;54.424;18.456;2023-04-07T02:38:57;20.05;;;7.88;;
53203;SDS011;39086;54.424;18.456;2023-04-07T02:40:00;30.85;;;7.85;;
53203;SDS011;39086;54.424;18.456;2023-04-07T02:41:03;32.13;;;7.85;;
53203;SDS011;39086;54.424;18.456;2023-04-07T02:42:06;23.38;;;7.70;;
53203;SDS011;39086;54.424;18.456;2023-04-07T02:43:09;31.00;;;7.28;;
53203;SDS011;39086;54.424;18.456;2023-04-07T02:44:12;35.95;;;7.63;;
53203;SDS011;39086;54.424;18.456;2023-04-07T02:45:14;34.65;;;7.25;;
53203;SDS011;39086;54.424;18.456;2023-04-07T02:46:18;29.80;;;7.50;;
53203;SDS011;39086;54.424;18.456;2023-04-07T02:47:21;30.33;;;7.32;;
53203;SDS011;39086;54.424;18.456;2023-04-07T02:48:25;25.65;;;7.50;;
53203;SDS011;39086;54.424;18.456;2023-04-07T02:49:27;25.27;;;6.63;;
53203;SDS011;39086;54.424;18.456;2023-04-07T02:50:30;26.30;;;7.75;;
53203;SDS011;39086;54.424;18.456;2023-04-07T02:51:33;21.90;;;7.20;;
53203;SDS011;39086;54.424;18.456;2023-04-07T02:52:36;21.55;;;6.90;;
53203;SDS011;39086;54.424;18.456;2023-04-07T02:53:38;25.92;;;7.07;;
53203;SDS011;39086;54.424;18.456;2023-04-07T02:54:42;18.60;;;7.53;;
53203;SDS011;39086;54.424;18.456;2023-04-07T02:55:44;19.73;;;7.57;;
53203;SDS011;39086;54.424;18.456;2023-04-07T02:56:48;28.67;;;8.32;;
53203;SDS011;39086;54.424;18.456;2023-04-07T02:57:50;24.02;;;7.55;;
53203;SDS011;39086;54.424;18.456;2023-04-07T02:58:53;25.08;;;7.47;;
53203;SDS011;39086;54.424;18.456;2023-04-07T02:59:56;37.85;;;7.20;;
53203;SDS011;39086;54.424;18.456;2023-04-07T03:00:59;27.77;;;8.02;;
53203;SDS011;39086;54.424;18.456;2023-04-07T03:02:01;25.88;;;8.23;;
53203;SDS011;39086;54.424;18.456;2023-04-07T03:03:06;24.63;;;8.07;;
53203;SDS011;39086;54.424;18.456;2023-04-07T03:04:09;20.60;;;7.75;;
53203;SDS011;39086;54.424;18.456;2023-04-07T03:05:13;24.17;;;8.45;;
53203;SDS011;39086;54.424;18.456;2023-04-07T03:06:15;26.67;;;8.77;;
53203;SDS011;39086;54.424;18.456;2023-04-07T03:07:19;25.02;;;8.38;;
53203;SDS011;39086;54.424;18.456;2023-04-07T03:08:21;21.65;;;8.27;;
53203;SDS011;39086;54.424;18.456;2023-04-07T03:09:24;23.33;;;8.38;;
53203;SDS011;39086;54.424;18.456;2023-04-07T03:10:27;19.98;;;8.10;;
53203;SDS011;39086;54.424;18.456;2023-04-07T03:11:31;22.00;;;8.30;;
53203;SDS011;39086;54.424;18.456;2023-04-07T03:12:33;27.35;;;9.05;;
53203;SDS011;39086;54.424;18.456;2023-04-07T03:13:36;28.27;;;8.82;;
53203;SDS011;39086;54.424;18.456;2023-04-07T03:14:39;28.30;;;9.05;;
53203;SDS011;39086;54.424;18.456;2023-04-07T03:15:42;28.08;;;9.45;;
53203;SDS011;39086;54.424;18.456;2023-04-07T03:16:44;26.80;;;9.32;;
53203;SDS011;39086;54.424;18.456;2023-04-07T03:17:48;25.48;;;9.35;;
53203;SDS011;39086;54.424;18.456;2023-04-07T03:18:52;28.25;;;9.40;;
53203;SDS011;39086;54.424;18.456;2023-04-07T03:19:55;28.67;;;9.70;;
53203;SDS011;39086;54.424;18.456;2023-04-07T03:20:57;23.60;;;8.98;;
53203;SDS011;39086;54.424;18.456;2023-04-07T03:22:01;28.92;;;9.18;;
53203;SDS011;39086;54.424;18.456;2023-04-07T03:23:03;28.23;;;9.02;;
53203;SDS011;39086;54.424;18.456;2023-04-07T03:24:07;33.25;;;9.18;;
53203;SDS011;39086;54.424;18.456;2023-04-07T03:25:09;28.15;;;9.07;;
53203;SDS011;39086;54.424;18.456;2023-04-07T03:26:12;32.63;;;9.43;;
53203;SDS011;39086;54.424;18.456;2023-04-07T03:27:15;30.40;;;9.45;;
53203;SDS011;39086;54.424;18.456;2023-04-07T03:28:18;36.15;;;9.93;;
53203;SDS011;39086;54.424;18.456;2023-04-07T03:29:21;30.27;;;9.85;;
53203;SDS011;39086;54.424;18.456;2023-04-07T03:30:24;29.58;;;8.88;;
53203;SDS011;39086;54.424;18.456;2023-04-07T03:31:27;25.63;;;8.45;;
53203;SDS011;39086;54.424;18.456;2023-04-07T03:32:31;26.17;;;8.95;;
53203;SDS011;39086;54.424;18.456;2023-04-07T03:33:33;31.83;;;9.30;;
53203;SDS011;39086;54.424;18.456;2023-04-07T03:34:38;28.92;;;9.35;;
53203;SDS011;39086;54.424;18.456;2023-04-07T03:35:41;30.30;;;9.48;;
53203;SDS011;39086;54.424;18.456;2023-04-07T03:36:44;39.03;;;10.27;;
53203;SDS011;39086;54.424;18.456;2023-04-07T03:37:47;33.10;;;10.07;;
53203;SDS011;39086;54.424;18.456;2023-04-07T03:38:50;31.15;;;9.75;;
53203;SDS011;39086;54.424;18.456;2023-04-07T03:39:53;36.28;;;9.93;;
53203;SDS011;39086;54.424;18.456;2023-04-07T03:40:55;31.60;;;10.15;;
53203;SDS011;39086;54.424;18.456;2023-04-07T03:41:59;27.38;;;9.80;;
53203;SDS011;39086;54.424;18.456;2023-04-07T03:43:01;36.55;;;9.63;;
53203;SDS011;39086;54.424;18.456;2023-04-07T03:44:04;32.45;;;10.13;;
53203;SDS011;39086;54.424;18.456;2023-04-07T03:45:07;36.88;;;10.38;;
53203;SDS011;39086;54.424;18.456;2023-04-07T03:46:11;26.55;;;9.18;;
53203;SDS011;39086;54.424;18.456;2023-04-07T03:47:13;36.38;;;10.27;;
53203;SDS011;39086;54.424;18.456;2023-04-07T03:48:16;27.95;;;8.63;;
53203;SDS011;39086;54.424;18.456;2023-04-07T03:49:19;34.58;;;9.18;;
53203;SDS011;39086;54.424;18.456;2023-04-07T03:50:22;29.63;;;8.98;;
53203;SDS011;39086;54.424;18.456;2023-04-07T03:51:26;31.40;;;9.88;;
53203;SDS011;39086;54.424;18.456;2023-04-07T03:52:28;31.05;;;9.35;;
53203;SDS011;39086;54.424;18.456;2023-04-07T03:53:32;27.95;;;8.38;;
53203;SDS011;39086;54.424;18.456;2023-04-07T03:54:34;31.83;;;9.63;;
53203;SDS011;39086;54.424;18.456;2023-04-07T03:55:37;29.42;;;8.30;;
53203;SDS011;39086;54.424;18.456;2023-04-07T03:56:40;24.60;;;8.45;;
53203;SDS011;39086;54.424;18.456;2023-04-07T03:57:43;28.92;;;9.77;;
53203;SDS011;39086;54.424;18.456;2023-04-07T03:58:46;32.45;;;9.15;;
53203;SDS011;39086;54.424;18.456;2023-04-07T03:59:49;26.25;;;8.35;;
53203;SDS011;39086;54.424;18.456;2023-04-07T04:00:51;30.98;;;8.57;;
53203;SDS011;39086;54.424;18.456;2023-04-07T04:01:55;28.75;;;7.90;;
53203;SDS011;39086;54.424;18.456;2023-04-07T04:02:57;30.42;;;9.20;;
53203;SDS011;39086;54.424;18.456;2023-04-07T04:04:01;29.42;;;7.88;;
53203;SDS011;39086;54.424;18.456;2023-04-07T04:05:03;27.77;;;7.95;;
53203;SDS011;39086;54.424;18.456;2023-04-07T04:06:08;26.33;;;8.35;;
53203;SDS011;39086;54.424;18.456;2023-04-07T04:07:10;21.50;;;8.55;;
53203;SDS011;39086;54.424;18.456;2023-04-07T04:08:14;30.52;;;9.00;;
53203;SDS011;39086;54.424;18.456;2023-04-07T04:09:16;27.42;;;8.48;;
53203;SDS011;39086;54.424;18.456;2023-04-07T04:10:21;28.10;;;9.57;;
53203;SDS011;39086;54.424;18.456;2023-04-07T04:11:23;34.33;;;9.18;;
53203;SDS011;39086;54.424;18.456;2023-04-07T04:12:27;29.90;;;9.23;;
53203;SDS011;39086;54.424;18.456;2023-04-07T04:13:29;24.45;;;8.98;;
53203;SDS011;39086;54.424;18.456;2023-04-07T04:14:33;36.40;;;8.95;;
53203;SDS011;39086;54.424;18.456;2023-04-07T04:15:35;31.63;;;8.95;;
53203;SDS011;39086;54.424;18.456;2023-04-07T04:16:39;24.20;;;8.32;;
53203;SDS011;39086;54.424;18.456;2023-04-07T04:17:41;30.42;;;8.95;;
53203;SDS011;39086;54.424;18.456;2023-04-07T04:18:44;39.50;;;8.27;;
53203;SDS011;39086;54.424;18.456;2023-04-07T04:19:47;32.20;;;8.55;;
53203;SDS011;39086;54.424;18.456;2023-04-07T04:20:51;27.88;;;8.43;;
53203;SDS011;39086;54.424;18.456;2023-04-07T04:21:55;29.40;;;8.60;;
53203;SDS011;39086;54.424;18.456;2023-04-07T04:22:58;37.53;;;8.07;;
53203;SDS011;39086;54.424;18.456;2023-04-07T04:24:00;28.13;;;7.55;;
53203;SDS011;39086;54.424;18.456;2023-04-07T04:25:04;27.45;;;8.25;;
53203;SDS011;39086;54.424;18.456;2023-04-07T04:26:07;31.70;;;8.68;;
53203;SDS011;39086;54.424;18.456;2023-04-07T04:27:10;30.33;;;6.90;;
53203;SDS011;39086;54.424;18.456;2023-04-07T04:28:13;33.95;;;7.80;;
53203;SDS011;39086;54.424;18.456;2023-04-07T04:29:16;32.53;;;7.45;;
53203;SDS011;39086;54.424;18.456;2023-04-07T04:30:18;38.00;;;7.75;;
53203;SDS011;39086;54.424;18.456;2023-04-07T04:31:21;40.83;;;8.43;;
53203;SDS011;39086;54.424;18.456;2023-04-07T04:32:24;25.15;;;7.20;;
53203;SDS011;39086;54.424;18.456;2023-04-07T04:33:27;32.42;;;7.28;;
53203;SDS011;39086;54.424;18.456;2023-04-07T04:34:30;38.13;;;7.82;;
53203;SDS011;39086;54.424;18.456;2023-04-07T04:35:34;32.00;;;7.40;;
53203;SDS011;39086;54.424;18.456;2023-04-07T04:36:37;23.45;;;7.10;;
53203;SDS011;39086;54.424;18.456;2023-04-07T04:37:42;26.48;;;7.75;;
53203;SDS011;39086;54.424;18.456;2023-04-07T04:38:44;53.70;;;7.75;;
53203;SDS011;39086;54.424;18.456;2023-04-07T04:39:47;26.50;;;8.10;;
53203;SDS011;39086;54.424;18.456;2023-04-07T04:40:50;32.70;;;7.90;;
53203;SDS011;39086;54.424;18.456;2023-04-07T04:41:53;32.97;;;9.32;;
53203;SDS011;39086;54.424;18.456;2023-04-07T04:42:57;41.67;;;7.47;;
53203;SDS011;39086;54.424;18.456;2023-04-07T04:44:00;28.67;;;8.15;;
53203;SDS011;39086;54.424;18.456;2023-04-07T04:45:03;23.17;;;6.82;;
53203;SDS011;39086;54.424;18.456;2023-04-07T04:46:06;22.17;;;7.38;;
53203;SDS011;39086;54.424;18.456;2023-04-07T04:47:10;22.15;;;8.27;;
53203;SDS011;39086;54.424;18.456;2023-04-07T04:48:12;21.70;;;7.80;;
53203;SDS011;39086;54.424;18.456;2023-04-07T04:49:15;19.58;;;6.95;;
53203;SDS011;39086;54.424;18.456;2023-04-07T04:50:19;29.75;;;7.85;;
53203;SDS011;39086;54.424;18.456;2023-04-07T04:51:22;25.20;;;7.47;;
53203;SDS011;39086;54.424;18.456;2023-04-07T04:52:25;20.73;;;7.32;;
53203;SDS011;39086;54.424;18.456;2023-04-07T04:53:30;22.15;;;7.47;;
53203;SDS011;39086;54.424;18.456;2023-04-07T04:54:32;27.88;;;8.40;;
53203;SDS011;39086;54.424;18.456;2023-04-07T04:55:36;22.45;;;7.60;;
53203;SDS011;39086;54.424;18.456;2023-04-07T04:56:41;23.35;;;8.05;;
53203;SDS011;39086;54.424;18.456;2023-04-07T04:57:44;25.30;;;7.57;;
53203;SDS011;39086;54.424;18.456;2023-04-07T04:58:46;26.17;;;7.60;;
53203;SDS011;39086;54.424;18.456;2023-04-07T04:59:49;21.02;;;7.95;;
53203;SDS011;39086;54.424;18.456;2023-04-07T05:00:52;25.80;;;7.32;;
53203;SDS011;39086;54.424;18.456;2023-04-07T05:01:58;22.63;;;6.80;;
53203;SDS011;39086;54.424;18.456;2023-04-07T05:03:01;21.40;;;8.13;;
53203;SDS011;39086;54.424;18.456;2023-04-07T05:04:04;29.02;;;7.20;;
53203;SDS011;39086;54.424;18.456;2023-04-07T05:05:07;20.02;;;7.13;;
53203;SDS011;39086;54.424;18.456;2023-04-07T05:06:11;22.15;;;7.13;;
53203;SDS011;39086;54.424;18.456;2023-04-07T05:07:13;24.27;;;7.97;;
53203;SDS011;39086;54.424;18.456;2023-04-07T05:08:16;29.33;;;7.32;;
53203;SDS011;39086;54.424;18.456;2023-04-07T05:09:20;28.95;;;7.63;;
53203;SDS011;39086;54.424;18.456;2023-04-07T05:10:23;22.90;;;7.07;;
53203;SDS011;39086;54.424;18.456;2023-04-07T05:11:26;21.75;;;7.13;;
53203;SDS011;39086;54.424;18.456;2023-04-07T05:12:29;26.05;;;7.15;;
53203;SDS011;39086;54.424;18.456;2023-04-07T05:13:31;21.65;;;8.15;;
53203;SDS011;39086;54.424;18.456;2023-04-07T05:14:35;23.50;;;6.82;;
53203;SDS011;39086;54.424;18.456;2023-04-07T05:15:38;28.55;;;8.00;;
53203;SDS011;39086;54.424;18.456;2023-04-07T05:16:41;20.65;;;7.40;;
53203;SDS011;39086;54.424;18.456;2023-04-07T05:17:44;23.73;;;7.50;;
53203;SDS011;39086;54.424;18.456;2023-04-07T05:18:50;17.48;;;7.28;;
53203;SDS011;39086;54.424;18.456;2023-04-07T05:19:53;26.08;;;7.90;;
53203;SDS011;39086;54.424;18.456;2023-04-07T05:20:56;18.83;;;7.20;;
53203;SDS011;39086;54.424;18.456;2023-04-07T05:21:58;24.70;;;8.00;;
53203;SDS011;39086;54.424;18.456;2023-04-07T05:23:02;18.13;;;7.93;;
53203;SDS011;39086;54.424;18.456;2023-04-07T05:24:04;24.67;;;7.90;;
53203;SDS011;39086;54.424;18.456;2023-04-07T05:25:11;25.30;;;7.35;;
53203;SDS011;39086;54.424;18.456;2023-04-07T05:26:13;21.92;;;7.38;;
53203;SDS011;39086;54.424;18.456;2023-04-07T05:27:16;20.00;;;7.22;;
53203;SDS011;39086;54.424;18.456;2023-04-07T05:28:19;23.13;;;8.00;;
53203;SDS011;39086;54.424;18.456;2023-04-07T05:29:22;19.48;;;7.80;;
53203;SDS011;39086;54.424;18.456;2023-04-07T05:30:24;25.60;;;8.23;;
53203;SDS011;39086;54.424;18.456;2023-04-07T05:31:28;28.13;;;8.27;;
53203;SDS011;39086;54.424;18.456;2023-04-07T05:32:30;25.45;;;7.70;;
53203;SDS011;39086;54.424;18.456;2023-04-07T05:33:33;25.88;;;7.68;;
53203;SDS011;39086;54.424;18.456;2023-04-07T05:34:36;24.30;;;7.38;;
53203;SDS011;39086;54.424;18.456;2023-04-07T05:35:40;20.30;;;7.78;;
53203;SDS011;39086;54.424;18.456;2023-04-07T05:36:42;30.38;;;8.00;;
53203;SDS011;39086;54.424;18.456;2023-04-07T05:37:46;23.42;;;7.82;;
53203;SDS011;39086;54.424;18.456;2023-04-07T05:38:48;23.48;;;8.30;;
53203;SDS011;39086;54.424;18.456;2023-04-07T05:39:51;21.58;;;7.65;;
53203;SDS011;39086;54.424;18.456;2023-04-07T05:40:55;28.70;;;7.60;;
53203;SDS011;39086;54.424;18.456;2023-04-07T05:41:58;28.77;;;8.13;;
53203;SDS011;39086;54.424;18.456;2023-04-07T05:43:02;28.20;;;8.20;;
53203;SDS011;39086;54.424;18.456;2023-04-07T05:44:05;30.65;;;7.82;;
53203;SDS011;39086;54.424;18.456;2023-04-07T05:45:08;24.85;;;7.82;;
53203;SDS011;39086;54.424;18.456;2023-04-07T05:46:12;32.25;;;7.70;;
53203;SDS011;39086;54.424;18.456;2023-04-07T05:47:15;23.60;;;6.95;;
53203;SDS011;39086;54.424;18.456;2023-04-07T05:48:18;29.85;;;7.55;;
53203;SDS011;39086;54.424;18.456;2023-04-07T05:49:21;34.70;;;8.98;;
53203;SDS011;39086;54.424;18.456;2023-04-07T05:50:24;28.52;;;7.70;;
53203;SDS011;39086;54.424;18.456;2023-04-07T05:51:27;25.25;;;7.53;;
53203;SDS011;39086;54.424;18.456;2023-04-07T05:52:29;32.25;;;7.60;;
53203;SDS011;39086;54.424;18.456;2023-04-07T05:53:32;29.98;;;7.38;;
53203;SDS011;39086;54.424;18.456;2023-04-07T05:54:35;18.25;;;7.32;;
53203;SDS011;39086;54.424;18.456;2023-04-07T05:55:40;28.63;;;8.00;;
53203;SDS011;39086;54.424;18.456;2023-04-07T05:56:44;26.63;;;7.57;;
53203;SDS011;39086;54.424;18.456;2023-04-07T05:57:47;23.80;;;7.75;;
53203;SDS011;39086;54.424;18.456;2023-04-07T05:58:50;17.50;;;8.00;;
53203;SDS011;39086;54.424;18.456;2023-04-07T05:59:54;28.45;;;8.23;;
53203;SDS011;39086;54.424;18.456;2023-04-07T06:00:56;35.85;;;7.93;;
53203;SDS011;39086;54.424;18.456;2023-04-07T06:01:59;36.80;;;7.90;;
53203;SDS011;39086;54.424;18.456;2023-04-07T06:03:02;39.33;;;8.18;;
53203;SDS011;39086;54.424;18.456;2023-04-07T06:04:05;33.15;;;9.00;;
53203;SDS011;39086;54.424;18.456;2023-04-07T06:05:08;29.67;;;9.35;;
53203;SDS011;39086;54.424;18.456;2023-04-07T06:06:11;38.88;;;9.73;;
53203;SDS011;39086;54.424;18.456;2023-04-07T06:07:13;36.88;;;9.02;;
53203;SDS011;39086;54.424;18.456;2023-04-07T06:08:17;31.25;;;8.48;;
53203;SDS011;39086;54.424;18.456;2023-04-07T06:09:20;31.65;;;8.52;;
53203;SDS011;39086;54.424;18.456;2023-04-07T06:10:24;36.10;;;8.80;;
53203;SDS011;39086;54.424;18.456;2023-04-07T06:11:26;23.90;;;8.57;;